sensor_id;sensor_type;location;lat;lon;timestamp;pressure;altitude;pressure_sealevel;temperature;humidity
40982;BME280;26708;50.304;19.028;2023-03-14T00:01:36;96859.41;;;11.53;42.62
40982;BME280;26708;50.304;19.028;2023-03-14T00:03:41;96858.56;;;11.52;42.78
40982;BME280;26708;50.304;19.028;2023-03-14T00:05:45;96847.97;;;11.55;42.92
40982;BME280;26708;50.304;19.028;2023-03-14T00:07:51;96841.81;;;11.56;42.85
40982;BME280;26708;50.304;19.028;2023-03-14T00:09:55;96840.88;;;11.59;42.93
40982;BME280;26708;50.304;19.028;2023-03-14T00:12:03;96832.09;;;11.60;42.84
40982;BME280;26708;50.304;19.028;2023-03-14T00:14:09;96802.97;;;11.44;42.72
40982;BME280;26708;50.304;19.028;2023-03-14T00:16:14;96783.84;;;11.42;43.12
40982;BME280;26708;50.304;19.028;2023-03-14T00:18:18;96789.50;;;11.55;43.04
40982;BME280;26708;50.304;19.028;2023-03-14T00:20:24;96791.22;;;11.56;43.04
40982;BME280;26708;50.304;19.028;2023-03-14T00:22:29;96764.69;;;11.40;43.02
40982;BME280;26708;50.304;19.028;2023-03-14T00:24:33;96785.81;;;11.60;43.15
40982;BME280;26708;50.304;19.028;2023-03-14T00:26:39;96783.03;;;11.65;42.96
40982;BME280;26708;50.304;19.028;2023-03-14T00:28:47;96767.34;;;11.63;42.97
40982;BME280;26708;50.304;19.028;2023-03-14T00:30:56;96758.56;;;11.64;42.97
40982;BME280;26708;50.304;19.028;2023-03-14T00:33:02;96769.78;;;11.68;42.86
40982;BME280;26708;50.304;19.028;2023-03-14T00:35:07;96749.28;;;11.56;42.90
40982;BME280;26708;50.304;19.028;2023-03-14T00:37:12;96760.94;;;11.72;42.91
40982;BME280;26708;50.304;19.028;2023-03-14T00:39:20;96759.97;;;11.74;42.83
40982;BME280;26708;50.304;19.028;2023-03-14T00:41:25;96757.28;;;11.76;42.78
40982;BME280;26708;50.304;19.028;2023-03-14T00:43:30;96751.97;;;11.77;42.75
40982;BME280;26708;50.304;19.028;2023-03-14T00:45:38;96684.13;;;11.47;42.65
40982;BME280;26708;50.304;19.028;2023-03-14T00:47:43;96704.38;;;11.66;42.63
40982;BME280;26708;50.304;19.028;2023-03-14T00:49:48;96707.66;;;11.71;42.69
40982;BME280;26708;50.304;19.028;2023-03-14T00:51:54;96711.09;;;11.73;42.52
40982;BME280;26708;50.304;19.028;2023-03-14T00:53:59;96728.41;;;11.77;42.57
40982;BME280;26708;50.304;19.028;2023-03-14T00:56:06;96731.94;;;11.76;42.50
40982;BME280;26708;50.304;19.028;2023-03-14T00:58:15;96733.50;;;11.80;42.60
40982;BME280;26708;50.304;19.028;2023-03-14T01:00:21;96711.72;;;11.80;42.50
40982;BME280;26708;50.304;19.028;2023-03-14T01:02:28;96709.81;;;11.83;42.47
40982;BME280;26708;50.304;19.028;2023-03-14T01:04:35;96708.91;;;11.84;42.39
40982;BME280;26708;50.304;19.028;2023-03-14T01:06:40;96711.59;;;11.82;42.30
40982;BME280;26708;50.304;19.028;2023-03-14T01:08:46;96673.88;;;11.64;42.42
40982;BME280;26708;50.304;19.028;2023-03-14T01:10:52;96707.31;;;11.80;42.24
40982;BME280;26708;50.304;19.028;2023-03-14T01:12:56;96684.19;;;11.68;42.51
40982;BME280;26708;50.304;19.028;2023-03-14T01:15:00;96706.72;;;11.72;42.41
40982;BME280;26708;50.304;19.028;2023-03-14T01:17:06;96715.41;;;11.74;42.60
40982;BME280;26708;50.304;19.028;2023-03-14T01:19:13;96711.22;;;11.69;42.54
40982;BME280;26708;50.304;19.028;2023-03-14T01:21:20;96701.78;;;11.65;42.68
40982;BME280;26708;50.304;19.028;2023-03-14T01:23:28;96649.38;;;11.42;42.72
40982;BME280;26708;50.304;19.028;2023-03-14T01:25:33;96639.03;;;11.39;42.68
40982;BME280;26708;50.304;19.028;2023-03-14T01:27:38;96663.66;;;11.56;42.70
40982;BME280;26708;50.304;19.028;2023-03-14T01:29:44;96625.19;;;11.35;42.80
40982;BME280;26708;50.304;19.028;2023-03-14T01:31:49;96644.75;;;11.48;42.61
40982;BME280;26708;50.304;19.028;2023-03-14T01:33:54;96646.56;;;11.48;42.99
40982;BME280;26708;50.304;19.028;2023-03-14T01:36:03;96631.78;;;11.45;42.80
40982;BME280;26708;50.304;19.028;2023-03-14T01:38:09;96590.97;;;11.17;42.75
40982;BME280;26708;50.304;19.028;2023-03-14T01:40:16;96631.00;;;11.43;43.04
40982;BME280;26708;50.304;19.028;2023-03-14T01:42:21;96628.38;;;11.43;43.11
40982;BME280;26708;50.304;19.028;2023-03-14T01:44:26;96643.19;;;11.44;42.95
40982;BME280;26708;50.304;19.028;2023-03-14T01:46:36;96636.16;;;11.45;42.89
40982;BME280;26708;50.304;19.028;2023-03-14T01:48:48;96613.34;;;11.25;42.56
40982;BME280;26708;50.304;19.028;2023-03-14T01:51:02;96634.94;;;11.32;42.83
40982;BME280;26708;50.304;19.028;2023-03-14T01:53:10;96636.84;;;11.27;42.77
40982;BME280;26708;50.304;19.028;2023-03-14T01:55:19;96606.03;;;11.10;42.64
40982;BME280;26708;50.304;19.028;2023-03-14T01:57:32;96619.59;;;11.21;42.50
40982;BME280;26708;50.304;19.028;2023-03-14T01:59:45;96611.28;;;11.10;42.52
40982;BME280;26708;50.304;19.028;2023-03-14T02:01:56;96614.72;;;11.12;42.64
40982;BME280;26708;50.304;19.028;2023-03-14T02:04:07;96612.09;;;11.12;42.78
40982;BME280;26708;50.304;19.028;2023-03-14T02:06:24;96617.22;;;11.15;42.68
40982;BME280;26708;50.304;19.028;2023-03-14T02:08:39;96622.44;;;11.15;42.87
40982;BME280;26708;50.304;19.028;2023-03-14T02:10:51;96623.47;;;11.11;42.98
40982;BME280;26708;50.304;19.028;2023-03-14T02:13:05;96617.72;;;11.02;43.27
40982;BME280;26708;50.304;19.028;2023-03-14T02:15:20;96628.06;;;11.05;43.46
40982;BME280;26708;50.304;19.028;2023-03-14T02:17:31;96630.09;;;10.97;43.64
40982;BME280;26708;50.304;19.028;2023-03-14T02:20:11;96646.53;;;11.00;43.57
40982;BME280;26708;50.304;19.028;2023-03-14T02:22:33;96632.84;;;10.94;43.72
40982;BME280;26708;50.304;19.028;2023-03-14T02:24:49;96637.38;;;10.87;43.81
40982;BME280;26708;50.304;19.028;2023-03-14T02:27:06;96630.56;;;10.83;43.92
40982;BME280;26708;50.304;19.028;2023-03-14T02:29:18;96604.91;;;10.68;44.25
40982;BME280;26708;50.304;19.028;2023-03-14T02:31:23;96610.94;;;10.70;44.61
40982;BME280;26708;50.304;19.028;2023-03-14T02:33:28;96614.31;;;10.74;44.78
40982;BME280;26708;50.304;19.028;2023-03-14T02:35:37;96590.94;;;10.69;45.13
40982;BME280;26708;50.304;19.028;2023-03-14T02:37:50;96590.19;;;10.66;45.30
40982;BME280;26708;50.304;19.028;2023-03-14T02:40:04;96584.34;;;10.58;45.30
40982;BME280;26708;50.304;19.028;2023-03-14T02:42:13;96592.16;;;10.59;45.34
40982;BME280;26708;50.304;19.028;2023-03-14T02:44:19;96591.38;;;10.57;45.65
40982;BME280;26708;50.304;19.028;2023-03-14T02:46:25;96597.47;;;10.56;45.97
40982;BME280;26708;50.304;19.028;2023-03-14T02:48:34;96591.63;;;10.50;45.76
40982;BME280;26708;50.304;19.028;2023-03-14T02:50:47;96614.09;;;10.55;46.00
40982;BME280;26708;50.304;19.028;2023-03-14T02:52:55;96612.38;;;10.54;45.92
40982;BME280;26708;50.304;19.028;2023-03-14T02:54:59;96603.94;;;10.46;45.91
40982;BME280;26708;50.304;19.028;2023-03-14T02:57:04;96626.38;;;10.53;45.94
40982;BME280;26708;50.304;19.028;2023-03-14T02:59:13;96593.78;;;10.37;46.12
40982;BME280;26708;50.304;19.028;2023-03-14T03:01:23;96615.19;;;10.48;46.19
40982;BME280;26708;50.304;19.028;2023-03-14T03:03:28;96616.09;;;10.47;46.28
40982;BME280;26708;50.304;19.028;2023-03-14T03:05:34;96573.41;;;10.22;46.29
40982;BME280;26708;50.304;19.028;2023-03-14T03:07:38;96595.63;;;10.35;46.21
40982;BME280;26708;50.304;19.028;2023-03-14T03:09:44;96604.41;;;10.33;46.06
40982;BME280;26708;50.304;19.028;2023-03-14T03:11:49;96609.69;;;10.31;46.24
40982;BME280;26708;50.304;19.028;2023-03-14T03:13:57;96596.91;;;10.22;46.52
40982;BME280;26708;50.304;19.028;2023-03-14T03:16:06;96604.56;;;10.28;46.64
40982;BME280;26708;50.304;19.028;2023-03-14T03:18:15;96612.50;;;10.25;47.13
40982;BME280;26708;50.304;19.028;2023-03-14T03:20:19;96580.94;;;10.05;47.24
40982;BME280;26708;50.304;19.028;2023-03-14T03:22:24;96610.03;;;10.21;47.13
40982;BME280;26708;50.304;19.028;2023-03-14T03:24:29;96625.88;;;10.16;47.38
40982;BME280;26708;50.304;19.028;2023-03-14T03:26:34;96595.97;;;9.99;47.45
40982;BME280;26708;50.304;19.028;2023-03-14T03:28:41;96629.44;;;10.14;47.66
40982;BME280;26708;50.304;19.028;2023-03-14T03:30:48;96630.34;;;10.13;47.65
40982;BME280;26708;50.304;19.028;2023-03-14T03:32:56;96600.81;;;9.83;48.05
40982;BME280;26708;50.304;19.028;2023-03-14T03:35:01;96643.66;;;10.05;48.21
40982;BME280;26708;50.304;19.028;2023-03-14T03:37:09;96671.63;;;10.03;48.41
40982;BME280;26708;50.304;19.028;2023-03-14T03:39:16;96695.34;;;9.96;48.67
40982;BME280;26708;50.304;19.028;2023-03-14T03:41:22;96695.53;;;9.90;48.85
40982;BME280;26708;50.304;19.028;2023-03-14T03:43:28;96691.28;;;9.87;48.81
40982;BME280;26708;50.304;19.028;2023-03-14T03:45:34;96698.28;;;9.85;48.73
40982;BME280;26708;50.304;19.028;2023-03-14T03:47:40;96698.34;;;9.84;48.72
40982;BME280;26708;50.304;19.028;2023-03-14T03:49:49;96675.81;;;9.80;47.93
40982;BME280;26708;50.304;19.028;2023-03-14T03:51:54;96682.44;;;9.91;47.92
40982;BME280;26708;50.304;19.028;2023-03-14T03:53:58;96666.56;;;9.97;47.68
40982;BME280;26708;50.304;19.028;2023-03-14T03:56:09;96666.31;;;10.05;47.28
40982;BME280;26708;50.304;19.028;2023-03-14T03:58:15;96679.06;;;10.15;47.00
40982;BME280;26708;50.304;19.028;2023-03-14T04:00:20;96677.84;;;10.25;46.69
40982;BME280;26708;50.304;19.028;2023-03-14T04:02:25;96664.50;;;10.34;46.43
40982;BME280;26708;50.304;19.028;2023-03-14T04:04:31;96641.00;;;10.33;46.29
40982;BME280;26708;50.304;19.028;2023-03-14T04:06:39;96654.22;;;10.54;46.04
40982;BME280;26708;50.304;19.028;2023-03-14T04:08:45;96659.09;;;10.65;45.92
40982;BME280;26708;50.304;19.028;2023-03-14T04:11:05;96637.22;;;10.67;45.77
40982;BME280;26708;50.304;19.028;2023-03-14T04:13:23;96611.22;;;10.63;45.64
40982;BME280;26708;50.304;19.028;2023-03-14T04:15:30;96582.03;;;10.50;45.53
40982;BME280;26708;50.304;19.028;2023-03-14T04:17:38;96653.97;;;10.86;45.72
40982;BME280;26708;50.304;19.028;2023-03-14T04:19:43;96641.63;;;10.91;45.64
40982;BME280;26708;50.304;19.028;2023-03-14T04:21:54;96644.13;;;10.94;45.53
40982;BME280;26708;50.304;19.028;2023-03-14T04:24:02;96641.47;;;10.96;45.43
40982;BME280;26708;50.304;19.028;2023-03-14T04:26:10;96616.50;;;10.86;45.19
40982;BME280;26708;50.304;19.028;2023-03-14T04:28:15;96614.69;;;10.89;45.24
40982;BME280;26708;50.304;19.028;2023-03-14T04:30:20;96640.31;;;11.04;45.14
40982;BME280;26708;50.304;19.028;2023-03-14T04:32:28;96628.06;;;11.05;45.13
40982;BME280;26708;50.304;19.028;2023-03-14T04:34:36;96614.97;;;11.05;45.17
40982;BME280;26708;50.304;19.028;2023-03-14T04:36:41;96625.41;;;11.06;45.33
40982;BME280;26708;50.304;19.028;2023-03-14T04:38:53;96553.50;;;10.67;45.35
40982;BME280;26708;50.304;19.028;2023-03-14T04:41:01;96604.53;;;11.03;45.50
40982;BME280;26708;50.304;19.028;2023-03-14T04:43:08;96582.94;;;10.98;45.37
40982;BME280;26708;50.304;19.028;2023-03-14T04:45:21;96594.94;;;11.04;45.42
40982;BME280;26708;50.304;19.028;2023-03-14T04:47:27;96596.59;;;11.06;45.27
40982;BME280;26708;50.304;19.028;2023-03-14T04:49:32;96586.00;;;11.09;45.20
40982;BME280;26708;50.304;19.028;2023-03-14T04:51:36;96584.31;;;11.08;45.31
40982;BME280;26708;50.304;19.028;2023-03-14T04:53:42;96542.38;;;10.85;45.27
40982;BME280;26708;50.304;19.028;2023-03-14T04:55:53;96565.38;;;11.02;45.03
40982;BME280;26708;50.304;19.028;2023-03-14T04:58:02;96579.25;;;11.04;44.92
40982;BME280;26708;50.304;19.028;2023-03-14T05:00:11;96558.69;;;10.93;45.05
40982;BME280;26708;50.304;19.028;2023-03-14T05:02:34;96583.59;;;11.03;45.03
40982;BME280;26708;50.304;19.028;2023-03-14T05:04:50;96539.88;;;10.82;44.86
40982;BME280;26708;50.304;19.028;2023-03-14T05:07:17;96542.38;;;10.85;45.05
40982;BME280;26708;50.304;19.028;2023-03-14T05:09:50;96559.03;;;11.07;44.72
40982;BME280;26708;50.304;19.028;2023-03-14T05:12:04;96551.31;;;11.04;44.76
40982;BME280;26708;50.304;19.028;2023-03-14T05:14:29;96539.09;;;11.03;44.56
40982;BME280;26708;50.304;19.028;2023-03-14T05:17:02;96525.75;;;10.86;44.57
40982;BME280;26708;50.304;19.028;2023-03-14T05:19:13;96559.97;;;11.06;44.52
40982;BME280;26708;50.304;19.028;2023-03-14T05:21:18;96554.72;;;11.06;44.55
40982;BME280;26708;50.304;19.028;2023-03-14T05:23:38;96545.91;;;11.09;44.55
40982;BME280;26708;50.304;19.028;2023-03-14T05:26:09;96530.63;;;10.97;44.45
40982;BME280;26708;50.304;19.028;2023-03-14T05:28:39;96549.34;;;11.09;44.36
40982;BME280;26708;50.304;19.028;2023-03-14T05:31:26;96501.38;;;10.86;44.42
40982;BME280;26708;50.304;19.028;2023-03-14T05:33:43;96530.03;;;11.13;44.36
40982;BME280;26708;50.304;19.028;2023-03-14T05:36:08;96538.63;;;11.17;44.17
40982;BME280;26708;50.304;19.028;2023-03-14T05:38:33;96536.78;;;11.19;44.18
40982;BME280;26708;50.304;19.028;2023-03-14T05:40:57;96538.50;;;11.20;44.12
40982;BME280;26708;50.304;19.028;2023-03-14T05:43:18;96488.75;;;10.97;44.08
40982;BME280;26708;50.304;19.028;2023-03-14T05:45:29;96514.31;;;11.13;43.97
40982;BME280;26708;50.304;19.028;2023-03-14T05:48:00;96517.03;;;11.10;44.02
40982;BME280;26708;50.304;19.028;2023-03-14T05:53:17;96468.19;;;10.88;44.10
40982;BME280;26708;50.304;19.028;2023-03-14T05:55:47;96527.09;;;11.21;44.01
40982;BME280;26708;50.304;19.028;2023-03-14T05:58:17;96507.25;;;11.15;44.08
40982;BME280;26708;50.304;19.028;2023-03-14T06:00:40;96515.66;;;11.23;44.18
40982;BME280;26708;50.304;19.028;2023-03-14T06:02:56;96514.75;;;11.24;44.08
40982;BME280;26708;50.304;19.028;2023-03-14T06:05:07;96493.97;;;11.20;44.12
40982;BME280;26708;50.304;19.028;2023-03-14T06:07:14;96508.31;;;11.33;44.08
40982;BME280;26708;50.304;19.028;2023-03-14T06:09:23;96515.25;;;11.34;44.07
40982;BME280;26708;50.304;19.028;2023-03-14T06:11:33;96482.13;;;11.11;43.91
40982;BME280;26708;50.304;19.028;2023-03-14T06:13:39;96516.09;;;11.34;43.99
40982;BME280;26708;50.304;19.028;2023-03-14T06:15:45;96515.03;;;11.40;43.97
40982;BME280;26708;50.304;19.028;2023-03-14T06:17:49;96520.09;;;11.44;44.00
40982;BME280;26708;50.304;19.028;2023-03-14T06:19:54;96513.88;;;11.47;43.96
40982;BME280;26708;50.304;19.028;2023-03-14T06:21:59;96510.34;;;11.48;43.69
40982;BME280;26708;50.304;19.028;2023-03-14T06:24:05;96505.88;;;11.50;43.87
40982;BME280;26708;50.304;19.028;2023-03-14T06:26:19;96469.22;;;11.28;43.86
40982;BME280;26708;50.304;19.028;2023-03-14T06:28:25;96485.25;;;11.42;43.92
40982;BME280;26708;50.304;19.028;2023-03-14T06:30:33;96471.34;;;11.40;43.83
40982;BME280;26708;50.304;19.028;2023-03-14T06:32:38;96483.88;;;11.54;43.97
40982;BME280;26708;50.304;19.028;2023-03-14T06:34:47;96498.56;;;11.58;43.83
40982;BME280;26708;50.304;19.028;2023-03-14T06:36:51;96471.34;;;11.40;43.65
40982;BME280;26708;50.304;19.028;2023-03-14T06:38:56;96489.94;;;11.56;43.69
40982;BME280;26708;50.304;19.028;2023-03-14T06:41:04;96479.63;;;11.51;43.84
40982;BME280;26708;50.304;19.028;2023-03-14T06:43:16;96412.78;;;11.21;43.68
40982;BME280;26708;50.304;19.028;2023-03-14T06:45:21;96466.94;;;11.62;43.68
40982;BME280;26708;50.304;19.028;2023-03-14T06:47:28;96475.59;;;11.64;43.66
40982;BME280;26708;50.304;19.028;2023-03-14T06:49:33;96457.63;;;11.55;43.73
40982;BME280;26708;50.304;19.028;2023-03-14T06:51:37;96444.91;;;11.46;43.55
40982;BME280;26708;50.304;19.028;2023-03-14T06:53:44;96478.16;;;11.66;43.88
40982;BME280;26708;50.304;19.028;2023-03-14T06:55:51;96466.91;;;11.64;43.58
40982;BME280;26708;50.304;19.028;2023-03-14T06:57:56;96473.47;;;11.74;43.62
40982;BME280;26708;50.304;19.028;2023-03-14T07:00:07;96462.00;;;11.76;43.48
40982;BME280;26708;50.304;19.028;2023-03-14T07:02:13;96457.72;;;11.74;43.53
40982;BME280;26708;50.304;19.028;2023-03-14T07:04:18;96457.16;;;11.87;43.50
40982;BME280;26708;50.304;19.028;2023-03-14T07:06:24;96419.59;;;11.67;43.08
40982;BME280;26708;50.304;19.028;2023-03-14T07:08:30;96465.00;;;11.87;43.03
40982;BME280;26708;50.304;19.028;2023-03-14T07:10:36;96469.47;;;11.85;42.95
40982;BME280;26708;50.304;19.028;2023-03-14T07:12:43;96485.19;;;11.85;43.12
40982;BME280;26708;50.304;19.028;2023-03-14T07:14:48;96483.31;;;11.88;43.05
40982;BME280;26708;50.304;19.028;2023-03-14T07:16:55;96481.41;;;11.92;42.92
40982;BME280;26708;50.304;19.028;2023-03-14T07:19:01;96465.09;;;11.86;43.02
40982;BME280;26708;50.304;19.028;2023-03-14T07:21:08;96483.97;;;11.93;43.08
40982;BME280;26708;50.304;19.028;2023-03-14T07:23:13;96475.50;;;11.87;42.97
40982;BME280;26708;50.304;19.028;2023-03-14T07:25:23;96485.38;;;12.02;43.00
40982;BME280;26708;50.304;19.028;2023-03-14T07:27:28;96470.59;;;11.99;42.78
40982;BME280;26708;50.304;19.028;2023-03-14T07:29:33;96492.34;;;12.23;42.74
40982;BME280;26708;50.304;19.028;2023-03-14T07:31:40;96472.50;;;12.17;42.53
40982;BME280;26708;50.304;19.028;2023-03-14T07:33:47;96509.34;;;12.34;42.52
40982;BME280;26708;50.304;19.028;2023-03-14T07:35:53;96505.84;;;12.34;42.58
40982;BME280;26708;50.304;19.028;2023-03-14T07:37:58;96517.53;;;12.47;42.28
40982;BME280;26708;50.304;19.028;2023-03-14T07:40:11;96520.81;;;12.52;42.16
40982;BME280;26708;50.304;19.028;2023-03-14T07:42:17;96519.91;;;12.53;42.15
40982;BME280;26708;50.304;19.028;2023-03-14T07:44:48;96494.78;;;12.47;41.93
40982;BME280;26708;50.304;19.028;2023-03-14T07:46:53;96516.66;;;12.66;42.19
40982;BME280;26708;50.304;19.028;2023-03-14T07:49:00;96498.09;;;12.71;41.95
40982;BME280;26708;50.304;19.028;2023-03-14T07:51:06;96518.47;;;12.84;41.85
40982;BME280;26708;50.304;19.028;2023-03-14T07:53:11;96497.06;;;12.75;41.68
40982;BME280;26708;50.304;19.028;2023-03-14T07:55:16;96517.28;;;12.91;41.58
40982;BME280;26708;50.304;19.028;2023-03-14T07:57:22;96524.88;;;12.97;41.62
40982;BME280;26708;50.304;19.028;2023-03-14T07:59:27;96507.16;;;13.02;41.42
40982;BME280;26708;50.304;19.028;2023-03-14T08:01:32;96510.16;;;13.13;41.61
40982;BME280;26708;50.304;19.028;2023-03-14T08:03:37;96517.56;;;13.24;40.98
40982;BME280;26708;50.304;19.028;2023-03-14T08:05:47;96481.34;;;13.12;40.90
40982;BME280;26708;50.304;19.028;2023-03-14T08:07:53;96494.25;;;13.35;40.70
40982;BME280;26708;50.304;19.028;2023-03-14T08:09:58;96516.69;;;13.42;40.58
40982;BME280;26708;50.304;19.028;2023-03-14T08:12:03;96510.53;;;13.43;40.62
40982;BME280;26708;50.304;19.028;2023-03-14T08:14:08;96516.13;;;13.54;40.28
40982;BME280;26708;50.304;19.028;2023-03-14T08:16:13;96527.38;;;13.57;40.45
40982;BME280;26708;50.304;19.028;2023-03-14T08:18:17;96474.09;;;13.35;40.41
40982;BME280;26708;50.304;19.028;2023-03-14T08:20:25;96511.09;;;13.68;40.24
40982;BME280;26708;50.304;19.028;2023-03-14T08:22:36;96510.00;;;13.72;40.00
40982;BME280;26708;50.304;19.028;2023-03-14T08:24:41;96521.50;;;13.69;40.06
40982;BME280;26708;50.304;19.028;2023-03-14T08:26:45;96535.34;;;13.73;40.17
40982;BME280;26708;50.304;19.028;2023-03-14T08:28:51;96514.91;;;13.79;40.33
40982;BME280;26708;50.304;19.028;2023-03-14T08:30:56;96511.66;;;13.91;40.09
40982;BME280;26708;50.304;19.028;2023-03-14T08:33:01;96530.25;;;14.05;39.98
40982;BME280;26708;50.304;19.028;2023-03-14T08:35:08;96519.53;;;14.10;39.58
40982;BME280;26708;50.304;19.028;2023-03-14T08:37:13;96516.59;;;14.16;39.50
40982;BME280;26708;50.304;19.028;2023-03-14T08:39:20;96516.44;;;14.19;39.64
40982;BME280;26708;50.304;19.028;2023-03-14T08:41:25;96508.72;;;14.16;39.70
40982;BME280;26708;50.304;19.028;2023-03-14T08:43:30;96489.84;;;14.08;39.71
40982;BME280;26708;50.304;19.028;2023-03-14T08:45:34;96490.06;;;14.20;39.42
40982;BME280;26708;50.304;19.028;2023-03-14T08:47:40;96520.81;;;14.37;38.92
40982;BME280;26708;50.304;19.028;2023-03-14T08:49:44;96516.69;;;14.31;39.49
40982;BME280;26708;50.304;19.028;2023-03-14T08:51:49;96515.44;;;14.38;39.41
40982;BME280;26708;50.304;19.028;2023-03-14T08:53:54;96516.22;;;14.40;39.46
40982;BME280;26708;50.304;19.028;2023-03-14T08:56:01;96516.84;;;14.45;39.45
40982;BME280;26708;50.304;19.028;2023-03-14T08:58:07;96527.13;;;14.50;39.43
40982;BME280;26708;50.304;19.028;2023-03-14T09:00:13;96508.09;;;14.45;39.32
40982;BME280;26708;50.304;19.028;2023-03-14T09:02:19;96526.13;;;14.52;39.28
40982;BME280;26708;50.304;19.028;2023-03-14T09:04:24;96509.69;;;14.47;39.17
40982;BME280;26708;50.304;19.028;2023-03-14T09:06:29;96529.63;;;14.53;39.25
40982;BME280;26708;50.304;19.028;2023-03-14T09:08:34;96528.00;;;14.50;39.33
40982;BME280;26708;50.304;19.028;2023-03-14T09:10:38;96542.94;;;14.50;39.40
40982;BME280;26708;50.304;19.028;2023-03-14T09:12:46;96496.16;;;14.21;39.46
40982;BME280;26708;50.304;19.028;2023-03-14T09:14:51;96527.13;;;14.33;39.69
40982;BME280;26708;50.304;19.028;2023-03-14T09:16:59;96532.47;;;14.31;39.64
40982;BME280;26708;50.304;19.028;2023-03-14T09:19:05;96556.09;;;14.33;39.80
40982;BME280;26708;50.304;19.028;2023-03-14T09:21:09;96539.81;;;14.25;39.79
40982;BME280;26708;50.304;19.028;2023-03-14T09:23:14;96535.44;;;14.25;39.79
40982;BME280;26708;50.304;19.028;2023-03-14T09:25:20;96561.19;;;14.36;39.92
40982;BME280;26708;50.304;19.028;2023-03-14T09:27:25;96516.91;;;14.10;40.03
40982;BME280;26708;50.304;19.028;2023-03-14T09:29:32;96542.63;;;14.22;39.98
40982;BME280;26708;50.304;19.028;2023-03-14T09:31:38;96522.34;;;14.07;39.89
40982;BME280;26708;50.304;19.028;2023-03-14T09:33:42;96562.22;;;14.33;40.13
40982;BME280;26708;50.304;19.028;2023-03-14T09:35:47;96550.19;;;14.28;40.40
40982;BME280;26708;50.304;19.028;2023-03-14T09:37:52;96504.25;;;13.99;40.25
40982;BME280;26708;50.304;19.028;2023-03-14T09:39:57;96548.50;;;14.27;40.24
40982;BME280;26708;50.304;19.028;2023-03-14T09:42:06;96543.00;;;14.31;40.45
40982;BME280;26708;50.304;19.028;2023-03-14T09:44:22;96534.09;;;14.34;40.49
40982;BME280;26708;50.304;19.028;2023-03-14T09:46:36;96540.75;;;14.41;40.55
40982;BME280;26708;50.304;19.028;2023-03-14T09:48:45;96545.78;;;14.45;40.18
40982;BME280;26708;50.304;19.028;2023-03-14T09:50:54;96553.31;;;14.53;40.19
40982;BME280;26708;50.304;19.028;2023-03-14T09:53:05;96551.44;;;14.55;39.97
40982;BME280;26708;50.304;19.028;2023-03-14T09:55:18;96543.50;;;14.56;40.08
40982;BME280;26708;50.304;19.028;2023-03-14T09:57:32;96548.66;;;14.58;39.87
40982;BME280;26708;50.304;19.028;2023-03-14T09:59:43;96561.69;;;14.61;39.98
40982;BME280;26708;50.304;19.028;2023-03-14T10:01:52;96539.34;;;14.51;40.02
40982;BME280;26708;50.304;19.028;2023-03-14T10:04:03;96555.53;;;14.77;40.05
40982;BME280;26708;50.304;19.028;2023-03-14T10:06:15;96548.31;;;14.81;39.88
40982;BME280;26708;50.304;19.028;2023-03-14T10:08:19;96572.50;;;14.89;39.66
40982;BME280;26708;50.304;19.028;2023-03-14T10:10:26;96579.56;;;14.88;39.56
40982;BME280;26708;50.304;19.028;2023-03-14T10:12:32;96547.03;;;14.72;39.61
40982;BME280;26708;50.304;19.028;2023-03-14T10:14:46;96562.06;;;14.87;39.80
40982;BME280;26708;50.304;19.028;2023-03-14T10:17:05;96571.25;;;14.96;39.53
40982;BME280;26708;50.304;19.028;2023-03-14T10:19:13;96577.28;;;14.98;39.50
40982;BME280;26708;50.304;19.028;2023-03-14T10:21:24;96580.16;;;14.93;39.48
40982;BME280;26708;50.304;19.028;2023-03-14T10:23:34;96583.03;;;14.89;39.84
40982;BME280;26708;50.304;19.028;2023-03-14T10:25:43;96589.63;;;14.80;39.94
40982;BME280;26708;50.304;19.028;2023-03-14T10:27:48;96566.16;;;14.59;40.14
40982;BME280;26708;50.304;19.028;2023-03-14T10:29:56;96588.38;;;14.70;40.29
40982;BME280;26708;50.304;19.028;2023-03-14T10:32:06;96596.69;;;14.63;40.31
40982;BME280;26708;50.304;19.028;2023-03-14T10:34:26;96583.81;;;14.57;40.68
40982;BME280;26708;50.304;19.028;2023-03-14T10:36:34;96586.69;;;14.52;40.55
40982;BME280;26708;50.304;19.028;2023-03-14T10:38:38;96579.88;;;14.48;41.06
40982;BME280;26708;50.304;19.028;2023-03-14T10:40:48;96579.94;;;14.47;41.15
40982;BME280;26708;50.304;19.028;2023-03-14T10:42:58;96582.19;;;14.37;41.33
40982;BME280;26708;50.304;19.028;2023-03-14T10:45:29;96577.31;;;14.30;41.65
40982;BME280;26708;50.304;19.028;2023-03-14T10:47:50;96573.25;;;14.23;42.44
40982;BME280;26708;50.304;19.028;2023-03-14T10:50:22;96574.66;;;14.30;42.57
40982;BME280;26708;50.304;19.028;2023-03-14T10:52:29;96578.31;;;14.27;42.30
40982;BME280;26708;50.304;19.028;2023-03-14T10:54:34;96579.34;;;14.23;42.31
40982;BME280;26708;50.304;19.028;2023-03-14T10:56:39;96575.09;;;14.21;42.29
40982;BME280;26708;50.304;19.028;2023-03-14T10:58:45;96543.38;;;13.88;42.46
40982;BME280;26708;50.304;19.028;2023-03-14T11:00:59;96552.44;;;14.00;42.60
40982;BME280;26708;50.304;19.028;2023-03-14T11:03:16;96576.03;;;14.01;42.41
40982;BME280;26708;50.304;19.028;2023-03-14T11:05:29;96587.41;;;14.02;42.55
40982;BME280;26708;50.304;19.028;2023-03-14T11:07:41;96558.44;;;13.85;42.52
40982;BME280;26708;50.304;19.028;2023-03-14T11:09:55;96562.94;;;13.83;42.97
40982;BME280;26708;50.304;19.028;2023-03-14T11:12:19;96577.28;;;13.94;42.82
40982;BME280;26708;50.304;19.028;2023-03-14T11:14:43;96582.66;;;13.91;42.88
40982;BME280;26708;50.304;19.028;2023-03-14T11:17:01;96574.28;;;13.83;42.95
40982;BME280;26708;50.304;19.028;2023-03-14T11:19:43;96584.81;;;13.83;43.13